sensor_id;sensor_type;location;lat;lon;timestamp;temperature;humidity
25102;DHT22;13087;51.472;5.464;2022-07-09T00:21:55;25.10;43.50
25102;DHT22;13087;51.472;5.464;2022-07-09T08:12:18;24.70;44.00
25102;DHT22;13087;51.472;5.464;2022-07-09T08:17:10;25.50;49.90
25102;DHT22;13087;51.472;5.464;2022-07-09T08:19:35;25.60;49.80
25102;DHT22;13087;51.472;5.464;2022-07-09T08:36:36;25.50;49.90
25102;DHT22;13087;51.472;5.464;2022-07-09T08:39:02;26.20;49.40
25102;DHT22;13087;51.472;5.464;2022-07-09T08:46:21;26.20;49.20
25102;DHT22;13087;51.472;5.464;2022-07-09T08:48:47;26.40;49.80
25102;DHT22;13087;51.472;5.464;2022-07-09T08:51:14;26.40;49.10
25102;DHT22;13087;51.472;5.464;2022-07-09T08:53:41;26.30;49.10
25102;DHT22;13087;51.472;5.464;2022-07-09T08:56:06;26.40;49.20
25102;DHT22;13087;51.472;5.464;2022-07-09T08:58:32;26.40;49.20
25102;DHT22;13087;51.472;5.464;2022-07-09T09:00:58;26.40;49.00
25102;DHT22;13087;51.472;5.464;2022-07-09T09:03:24;26.40;48.90
25102;DHT22;13087;51.472;5.464;2022-07-09T09:06:02;26.30;49.20
25102;DHT22;13087;51.472;5.464;2022-07-09T09:08:34;26.30;49.20
25102;DHT22;13087;51.472;5.464;2022-07-09T09:11:01;26.40;49.30
25102;DHT22;13087;51.472;5.464;2022-07-09T09:13:26;26.40;49.30
25102;DHT22;13087;51.472;5.464;2022-07-09T09:16:02;26.50;49.30
25102;DHT22;13087;51.472;5.464;2022-07-09T09:18:27;26.50;49.20
25102;DHT22;13087;51.472;5.464;2022-07-09T09:20:54;26.50;49.30
25102;DHT22;13087;51.472;5.464;2022-07-09T09:23:19;26.60;49.30
25102;DHT22;13087;51.472;5.464;2022-07-09T09:25:44;26.50;49.10
25102;DHT22;13087;51.472;5.464;2022-07-09T09:28:11;26.50;49.20
25102;DHT22;13087;51.472;5.464;2022-07-09T09:30:41;26.60;49.20
25102;DHT22;13087;51.472;5.464;2022-07-09T09:33:07;26.60;49.20
25102;DHT22;13087;51.472;5.464;2022-07-09T09:35:32;26.60;49.10
25102;DHT22;13087;51.472;5.464;2022-07-09T09:37:58;26.60;49.10
25102;DHT22;13087;51.472;5.464;2022-07-09T09:40:25;26.50;49.10
25102;DHT22;13087;51.472;5.464;2022-07-09T09:42:51;26.50;49.30
25102;DHT22;13087;51.472;5.464;2022-07-09T09:45:18;26.50;49.40
25102;DHT22;13087;51.472;5.464;2022-07-09T09:47:47;26.50;49.40
25102;DHT22;13087;51.472;5.464;2022-07-09T09:50:17;26.60;49.40
25102;DHT22;13087;51.472;5.464;2022-07-09T09:52:45;26.60;49.30
25102;DHT22;13087;51.472;5.464;2022-07-09T09:55:11;26.70;49.10
25102;DHT22;13087;51.472;5.464;2022-07-09T09:57:38;26.80;49.20
25102;DHT22;13087;51.472;5.464;2022-07-09T10:00:05;26.80;49.10
25102;DHT22;13087;51.472;5.464;2022-07-09T10:02:32;26.80;49.20
25102;DHT22;13087;51.472;5.464;2022-07-09T10:04:58;26.80;49.00
25102;DHT22;13087;51.472;5.464;2022-07-09T10:07:24;26.80;49.00
25102;DHT22;13087;51.472;5.464;2022-07-09T10:09:53;26.80;49.10
25102;DHT22;13087;51.472;5.464;2022-07-09T10:12:26;26.70;49.10
25102;DHT22;13087;51.472;5.464;2022-07-09T10:14:52;26.70;49.30
25102;DHT22;13087;51.472;5.464;2022-07-09T10:17:18;26.70;49.30
25102;DHT22;13087;51.472;5.464;2022-07-09T10:19:50;26.60;49.50
25102;DHT22;13087;51.472;5.464;2022-07-09T10:22:17;26.60;49.60
25102;DHT22;13087;51.472;5.464;2022-07-09T10:24:44;26.60;49.50
25102;DHT22;13087;51.472;5.464;2022-07-09T10:27:10;26.60;49.40
25102;DHT22;13087;51.472;5.464;2022-07-09T10:29:36;26.70;49.40
25102;DHT22;13087;51.472;5.464;2022-07-09T10:32:03;26.70;49.40
25102;DHT22;13087;51.472;5.464;2022-07-09T10:34:49;26.70;49.40
25102;DHT22;13087;51.472;5.464;2022-07-09T10:37:16;26.80;49.50
25102;DHT22;13087;51.472;5.464;2022-07-09T10:39:52;26.80;49.50
25102;DHT22;13087;51.472;5.464;2022-07-09T10:42:18;26.80;49.30
25102;DHT22;13087;51.472;5.464;2022-07-09T10:44:44;26.90;49.40
25102;DHT22;13087;51.472;5.464;2022-07-09T10:47:11;26.90;49.20
25102;DHT22;13087;51.472;5.464;2022-07-09T10:49:36;26.90;50.00
25102;DHT22;13087;51.472;5.464;2022-07-09T10:52:03;26.90;49.30
25102;DHT22;13087;51.472;5.464;2022-07-09T10:54:28;26.90;49.30
25102;DHT22;13087;51.472;5.464;2022-07-09T10:56:54;26.90;49.40
25102;DHT22;13087;51.472;5.464;2022-07-09T10:59:21;26.90;49.40
25102;DHT22;13087;51.472;5.464;2022-07-09T11:01:47;27.10;49.40
25102;DHT22;13087;51.472;5.464;2022-07-09T11:04:28;27.30;49.30
25102;DHT22;13087;51.472;5.464;2022-07-09T11:06:55;27.40;49.10
25102;DHT22;13087;51.472;5.464;2022-07-09T11:09:21;27.50;48.90
25102;DHT22;13087;51.472;5.464;2022-07-09T11:11:48;27.60;48.80
25102;DHT22;13087;51.472;5.464;2022-07-09T11:14:14;27.70;48.60
25102;DHT22;13087;51.472;5.464;2022-07-09T11:16:40;27.80;48.40
25102;DHT22;13087;51.472;5.464;2022-07-09T11:19:18;27.80;48.10
25102;DHT22;13087;51.472;5.464;2022-07-09T11:21:44;27.80;47.90
25102;DHT22;13087;51.472;5.464;2022-07-09T11:24:16;27.80;47.80
25102;DHT22;13087;51.472;5.464;2022-07-09T11:26:42;27.80;47.90
25102;DHT22;13087;51.472;5.464;2022-07-09T11:29:08;27.80;48.00
25102;DHT22;13087;51.472;5.464;2022-07-09T11:31:34;27.90;48.00
25102;DHT22;13087;51.472;5.464;2022-07-09T11:34:00;28.10;48.00
25102;DHT22;13087;51.472;5.464;2022-07-09T11:36:38;28.20;47.90
25102;DHT22;13087;51.472;5.464;2022-07-09T11:39:06;28.20;47.60
25102;DHT22;13087;51.472;5.464;2022-07-09T11:41:39;28.30;47.50
25102;DHT22;13087;51.472;5.464;2022-07-09T11:44:05;28.40;47.30
25102;DHT22;13087;51.472;5.464;2022-07-09T11:46:35;28.40;47.20
25102;DHT22;13087;51.472;5.464;2022-07-09T11:49:02;28.40;47.10
25102;DHT22;13087;51.472;5.464;2022-07-09T11:51:33;28.50;47.40
25102;DHT22;13087;51.472;5.464;2022-07-09T11:54:00;28.50;46.60
25102;DHT22;13087;51.472;5.464;2022-07-09T11:56:25;28.60;46.60
25102;DHT22;13087;51.472;5.464;2022-07-09T11:58:51;28.70;46.40
25102;DHT22;13087;51.472;5.464;2022-07-09T12:01:17;28.90;46.30
25102;DHT22;13087;51.472;5.464;2022-07-09T12:03:46;29.00;45.70
25102;DHT22;13087;51.472;5.464;2022-07-09T12:06:12;29.00;45.00
25102;DHT22;13087;51.472;5.464;2022-07-09T12:08:39;29.00;45.00
25102;DHT22;13087;51.472;5.464;2022-07-09T12:11:06;29.00;44.90
25102;DHT22;13087;51.472;5.464;2022-07-09T12:13:31;29.00;45.00
25102;DHT22;13087;51.472;5.464;2022-07-09T12:15:57;29.00;44.90
25102;DHT22;13087;51.472;5.464;2022-07-09T12:18:22;29.00;44.70
25102;DHT22;13087;51.472;5.464;2022-07-09T12:20:48;28.90;44.80
25102;DHT22;13087;51.472;5.464;2022-07-09T12:23:15;28.90;44.80
25102;DHT22;13087;51.472;5.464;2022-07-09T12:25:41;29.00;45.00
25102;DHT22;13087;51.472;5.464;2022-07-09T12:28:07;29.20;44.60
25102;DHT22;13087;51.472;5.464;2022-07-09T12:30:32;29.30;44.40
25102;DHT22;13087;51.472;5.464;2022-07-09T12:32:58;29.50;44.30
25102;DHT22;13087;51.472;5.464;2022-07-09T12:35:26;29.60;43.90
25102;DHT22;13087;51.472;5.464;2022-07-09T12:37:52;29.70;43.80
25102;DHT22;13087;51.472;5.464;2022-07-09T12:40:21;29.80;43.80
25102;DHT22;13087;51.472;5.464;2022-07-09T12:42:46;29.70;43.60
25102;DHT22;13087;51.472;5.464;2022-07-09T12:45:12;29.70;43.40
25102;DHT22;13087;51.472;5.464;2022-07-09T12:47:39;29.80;43.20
25102;DHT22;13087;51.472;5.464;2022-07-09T12:50:05;29.80;43.00
25102;DHT22;13087;51.472;5.464;2022-07-09T12:52:31;29.90;42.40
25102;DHT22;13087;51.472;5.464;2022-07-09T12:54:58;29.90;42.50
25102;DHT22;13087;51.472;5.464;2022-07-09T12:57:24;29.90;42.50
25102;DHT22;13087;51.472;5.464;2022-07-09T12:59:49;29.80;42.40
25102;DHT22;13087;51.472;5.464;2022-07-09T13:02:15;29.80;42.00
25102;DHT22;13087;51.472;5.464;2022-07-09T13:04:40;29.80;41.70
25102;DHT22;13087;51.472;5.464;2022-07-09T13:07:06;29.70;41.40
25102;DHT22;13087;51.472;5.464;2022-07-09T13:09:31;29.70;41.50
25102;DHT22;13087;51.472;5.464;2022-07-09T13:11:59;29.70;41.60
25102;DHT22;13087;51.472;5.464;2022-07-09T13:14:25;29.70;41.10
25102;DHT22;13087;51.472;5.464;2022-07-09T13:16:50;29.80;41.30
25102;DHT22;13087;51.472;5.464;2022-07-09T13:19:16;29.90;40.60
25102;DHT22;13087;51.472;5.464;2022-07-09T13:21:41;29.90;40.80
25102;DHT22;13087;51.472;5.464;2022-07-09T13:24:08;30.00;40.70
25102;DHT22;13087;51.472;5.464;2022-07-09T13:26:34;30.10;40.20
25102;DHT22;13087;51.472;5.464;2022-07-09T13:29:00;30.10;40.30
25102;DHT22;13087;51.472;5.464;2022-07-09T13:31:25;30.20;40.10
25102;DHT22;13087;51.472;5.464;2022-07-09T13:33:52;30.30;40.10
25102;DHT22;13087;51.472;5.464;2022-07-09T13:36:18;30.40;39.60
25102;DHT22;13087;51.472;5.464;2022-07-09T13:38:44;30.60;39.40
25102;DHT22;13087;51.472;5.464;2022-07-09T13:41:09;30.70;38.90
25102;DHT22;13087;51.472;5.464;2022-07-09T13:43:34;30.70;38.50
25102;DHT22;13087;51.472;5.464;2022-07-09T13:46:00;30.70;38.40
25102;DHT22;13087;51.472;5.464;2022-07-09T13:48:27;30.70;38.70
25102;DHT22;13087;51.472;5.464;2022-07-09T13:50:53;30.70;38.40
25102;DHT22;13087;51.472;5.464;2022-07-09T13:53:19;30.80;38.50
25102;DHT22;13087;51.472;5.464;2022-07-09T13:55:45;30.80;38.10
25102;DHT22;13087;51.472;5.464;2022-07-09T13:58:10;30.90;38.00
25102;DHT22;13087;51.472;5.464;2022-07-09T14:00:36;30.90;38.00
25102;DHT22;13087;51.472;5.464;2022-07-09T14:03:02;30.90;37.60
25102;DHT22;13087;51.472;5.464;2022-07-09T14:05:27;30.90;37.70
25102;DHT22;13087;51.472;5.464;2022-07-09T14:07:53;31.00;37.70
25102;DHT22;13087;51.472;5.464;2022-07-09T14:10:19;31.10;37.90
25102;DHT22;13087;51.472;5.464;2022-07-09T14:12:44;31.30;37.90
25102;DHT22;13087;51.472;5.464;2022-07-09T14:15:10;31.40;37.80
25102;DHT22;13087;51.472;5.464;2022-07-09T14:17:35;31.50;37.20
25102;DHT22;13087;51.472;5.464;2022-07-09T14:20:01;31.40;36.60
25102;DHT22;13087;51.472;5.464;2022-07-09T14:22:28;31.30;36.50
25102;DHT22;13087;51.472;5.464;2022-07-09T14:24:53;31.30;36.90
25102;DHT22;13087;51.472;5.464;2022-07-09T14:27:20;31.30;36.50
25102;DHT22;13087;51.472;5.464;2022-07-09T14:29:51;31.40;36.20
25102;DHT22;13087;51.472;5.464;2022-07-09T14:32:17;31.50;36.30
25102;DHT22;13087;51.472;5.464;2022-07-09T14:34:42;31.70;36.50
25102;DHT22;13087;51.472;5.464;2022-07-09T14:37:08;31.70;35.50
25102;DHT22;13087;51.472;5.464;2022-07-09T14:39:34;31.70;35.30
25102;DHT22;13087;51.472;5.464;2022-07-09T14:41:59;31.60;35.40
25102;DHT22;13087;51.472;5.464;2022-07-09T14:44:26;31.60;35.50
25102;DHT22;13087;51.472;5.464;2022-07-09T14:46:51;31.60;35.40
25102;DHT22;13087;51.472;5.464;2022-07-09T14:49:26;31.60;35.40
25102;DHT22;13087;51.472;5.464;2022-07-09T14:51:54;31.70;35.30
25102;DHT22;13087;51.472;5.464;2022-07-09T14:54:21;31.80;34.70
25102;DHT22;13087;51.472;5.464;2022-07-09T14:56:47;31.70;34.50
25102;DHT22;13087;51.472;5.464;2022-07-09T14:59:12;31.60;34.70
25102;DHT22;13087;51.472;5.464;2022-07-09T15:01:42;31.60;34.50
25102;DHT22;13087;51.472;5.464;2022-07-09T15:04:08;31.50;34.80
25102;DHT22;13087;51.472;5.464;2022-07-09T15:06:34;31.40;34.70
25102;DHT22;13087;51.472;5.464;2022-07-09T15:08:59;31.40;34.70
25102;DHT22;13087;51.472;5.464;2022-07-09T15:11:24;31.40;34.80
25102;DHT22;13087;51.472;5.464;2022-07-09T15:13:50;31.40;35.00
25102;DHT22;13087;51.472;5.464;2022-07-09T15:16:15;31.60;35.00
25102;DHT22;13087;51.472;5.464;2022-07-09T15:18:43;31.60;34.80
25102;DHT22;13087;51.472;5.464;2022-07-09T15:21:10;31.60;34.80
25102;DHT22;13087;51.472;5.464;2022-07-09T15:23:36;31.50;34.60
25102;DHT22;13087;51.472;5.464;2022-07-09T15:26:03;31.40;34.70
25102;DHT22;13087;51.472;5.464;2022-07-09T15:28:29;31.40;34.80
25102;DHT22;13087;51.472;5.464;2022-07-09T15:30:54;31.50;34.60
25102;DHT22;13087;51.472;5.464;2022-07-09T15:33:20;31.60;34.80
25102;DHT22;13087;51.472;5.464;2022-07-09T15:35:45;31.70;34.50
25102;DHT22;13087;51.472;5.464;2022-07-09T15:38:11;31.80;34.50
25102;DHT22;13087;51.472;5.464;2022-07-09T15:40:36;31.90;34.20
25102;DHT22;13087;51.472;5.464;2022-07-09T15:43:03;32.00;34.40
25102;DHT22;13087;51.472;5.464;2022-07-09T15:45:29;32.10;34.10
25102;DHT22;13087;51.472;5.464;2022-07-09T15:47:54;32.20;34.30
25102;DHT22;13087;51.472;5.464;2022-07-09T15:50:20;32.20;34.20
25102;DHT22;13087;51.472;5.464;2022-07-09T15:52:46;32.30;34.30
25102;DHT22;13087;51.472;5.464;2022-07-09T15:55:14;32.30;34.10
25102;DHT22;13087;51.472;5.464;2022-07-09T15:57:40;32.20;34.30
25102;DHT22;13087;51.472;5.464;2022-07-09T16:00:06;32.20;34.60
25102;DHT22;13087;51.472;5.464;2022-07-09T16:02:33;32.20;34.70
25102;DHT22;13087;51.472;5.464;2022-07-09T16:04:59;32.30;34.80
25102;DHT22;13087;51.472;5.464;2022-07-09T16:07:25;32.30;34.70
25102;DHT22;13087;51.472;5.464;2022-07-09T16:09:51;32.30;34.70
25102;DHT22;13087;51.472;5.464;2022-07-09T16:12:17;32.30;34.80
25102;DHT22;13087;51.472;5.464;2022-07-09T16:15:02;32.30;34.60
25102;DHT22;13087;51.472;5.464;2022-07-09T16:17:27;32.10;34.20
25102;DHT22;13087;51.472;5.464;2022-07-09T16:19:53;31.90;34.30
25102;DHT22;13087;51.472;5.464;2022-07-09T16:22:19;31.60;34.60
25102;DHT22;13087;51.472;5.464;2022-07-09T16:24:45;31.50;34.80
25102;DHT22;13087;51.472;5.464;2022-07-09T16:27:11;31.40;35.10
25102;DHT22;13087;51.472;5.464;2022-07-09T16:29:38;31.30;35.10
25102;DHT22;13087;51.472;5.464;2022-07-09T16:32:03;31.20;35.40
25102;DHT22;13087;51.472;5.464;2022-07-09T16:36:58;31.10;35.50
25102;DHT22;13087;51.472;5.464;2022-07-09T16:39:24;30.90;36.60
25102;DHT22;13087;51.472;5.464;2022-07-09T16:41:51;30.90;35.60
25102;DHT22;13087;51.472;5.464;2022-07-09T16:44:16;30.80;36.20
25102;DHT22;13087;51.472;5.464;2022-07-09T16:46:42;30.80;36.30
25102;DHT22;13087;51.472;5.464;2022-07-09T16:49:09;30.70;36.50
25102;DHT22;13087;51.472;5.464;2022-07-09T16:51:34;30.70;36.50
25102;DHT22;13087;51.472;5.464;2022-07-09T16:54:00;30.60;36.60
25102;DHT22;13087;51.472;5.464;2022-07-09T16:56:26;30.70;36.50
25102;DHT22;13087;51.472;5.464;2022-07-09T16:58:51;30.60;36.50
25102;DHT22;13087;51.472;5.464;2022-07-09T17:01:17;30.50;36.60
25102;DHT22;13087;51.472;5.464;2022-07-09T17:03:42;30.50;36.60
25102;DHT22;13087;51.472;5.464;2022-07-09T17:06:08;30.40;36.70
25102;DHT22;13087;51.472;5.464;2022-07-09T17:08:33;30.40;36.90
25102;DHT22;13087;51.472;5.464;2022-07-09T17:10:59;30.40;37.00
25102;DHT22;13087;51.472;5.464;2022-07-09T17:13:24;30.30;36.80
25102;DHT22;13087;51.472;5.464;2022-07-09T17:15:51;30.30;36.70
25102;DHT22;13087;51.472;5.464;2022-07-09T17:18:17;30.20;36.80
25102;DHT22;13087;51.472;5.464;2022-07-09T17:20:43;30.10;36.60
25102;DHT22;13087;51.472;5.464;2022-07-09T17:23:11;29.80;36.70
25102;DHT22;13087;51.472;5.464;2022-07-09T17:25:36;29.70;37.00
25102;DHT22;13087;51.472;5.464;2022-07-09T17:28:02;29.60;37.20
25102;DHT22;13087;51.472;5.464;2022-07-09T17:30:27;29.50;37.20
25102;DHT22;13087;51.472;5.464;2022-07-09T17:32:53;29.50;37.30
25102;DHT22;13087;51.472;5.464;2022-07-09T17:35:22;29.40;37.00
25102;DHT22;13087;51.472;5.464;2022-07-09T17:37:48;29.30;37.10
25102;DHT22;13087;51.472;5.464;2022-07-09T17:40:13;29.20;37.10
25102;DHT22;13087;51.472;5.464;2022-07-09T17:42:39;29.20;37.20
25102;DHT22;13087;51.472;5.464;2022-07-09T17:45:04;29.10;37.40
25102;DHT22;13087;51.472;5.464;2022-07-09T17:47:31;29.00;37.40
25102;DHT22;13087;51.472;5.464;2022-07-09T17:49:57;29.00;37.50
25102;DHT22;13087;51.472;5.464;2022-07-09T17:52:23;29.00;37.40
25102;DHT22;13087;51.472;5.464;2022-07-09T17:54:48;28.90;38.00
25102;DHT22;13087;51.472;5.464;2022-07-09T17:57:14;28.80;37.30
25102;DHT22;13087;51.472;5.464;2022-07-09T17:59:40;28.70;37.20
25102;DHT22;13087;51.472;5.464;2022-07-09T18:02:05;28.60;37.10
25102;DHT22;13087;51.472;5.464;2022-07-09T18:09:23;28.50;37.10
25102;DHT22;13087;51.472;5.464;2022-07-09T18:11:50;28.10;38.10
25102;DHT22;13087;51.472;5.464;2022-07-09T18:14:16;28.10;38.00
25102;DHT22;13087;51.472;5.464;2022-07-09T18:16:41;28.10;38.00
25102;DHT22;13087;51.472;5.464;2022-07-09T18:19:10;28.00;38.00
25102;DHT22;13087;51.472;5.464;2022-07-09T18:21:36;28.00;38.00
25102;DHT22;13087;51.472;5.464;2022-07-09T18:24:01;27.90;37.80
25102;DHT22;13087;51.472;5.464;2022-07-09T18:26:27;27.80;38.00
25102;DHT22;13087;51.472;5.464;2022-07-09T18:28:52;27.60;38.10
25102;DHT22;13087;51.472;5.464;2022-07-09T18:31:18;27.40;38.30
25102;DHT22;13087;51.472;5.464;2022-07-09T18:33:44;27.30;38.50
25102;DHT22;13087;51.472;5.464;2022-07-09T18:36:10;27.20;38.70
25102;DHT22;13087;51.472;5.464;2022-07-09T18:38:35;27.20;38.80
25102;DHT22;13087;51.472;5.464;2022-07-09T18:41:01;27.10;38.90
25102;DHT22;13087;51.472;5.464;2022-07-09T18:43:27;27.10;38.90
25102;DHT22;13087;51.472;5.464;2022-07-09T18:45:52;27.00;38.90
25102;DHT22;13087;51.472;5.464;2022-07-09T18:48:18;26.90;39.00
25102;DHT22;13087;51.472;5.464;2022-07-09T18:50:43;26.80;39.10
25102;DHT22;13087;51.472;5.464;2022-07-09T18:53:09;26.70;39.10
25102;DHT22;13087;51.472;5.464;2022-07-09T18:55:34;26.60;39.10
25102;DHT22;13087;51.472;5.464;2022-07-09T18:58:00;26.50;39.20
25102;DHT22;13087;51.472;5.464;2022-07-09T19:00:27;26.40;39.40
25102;DHT22;13087;51.472;5.464;2022-07-09T19:19:54;26.30;39.50
25102;DHT22;13087;51.472;5.464;2022-07-09T19:24:45;25.90;39.20
25102;DHT22;13087;51.472;5.464;2022-07-09T19:27:11;25.80;39.70
25102;DHT22;13087;51.472;5.464;2022-07-09T19:29:36;25.70;39.70
25102;DHT22;13087;51.472;5.464;2022-07-09T19:32:02;25.60;39.70
25102;DHT22;13087;51.472;5.464;2022-07-09T19:34:46;25.50;39.90
25102;DHT22;13087;51.472;5.464;2022-07-09T19:37:12;25.40;39.90
25102;DHT22;13087;51.472;5.464;2022-07-09T19:39:37;25.40;40.00
25102;DHT22;13087;51.472;5.464;2022-07-09T19:49:25;25.40;40.10
25102;DHT22;13087;51.472;5.464;2022-07-09T19:51:51;25.30;40.10
25102;DHT22;13087;51.472;5.464;2022-07-09T19:54:16;25.20;40.20
25102;DHT22;13087;51.472;5.464;2022-07-09T19:59:07;25.20;40.90
25102;DHT22;13087;51.472;5.464;2022-07-09T21:24:57;25.10;40.30
25102;DHT22;13087;51.472;5.464;2022-07-09T21:27:23;23.80;41.70
25102;DHT22;13087;51.472;5.464;2022-07-09T21:29:48;23.80;41.60
